Time;durP1;ratioP1;P1;durP2;ratioP2;P2;SDS_P1;SDS_P2;PMS_P1;PMS_P2;Temp;Humidity;BMP_temperature;BMP_pressure;BME280_temperature;BME280_humidity;BME280_pressure;Samples;Min_cycle;Max_cycle;Signal;HPM_P1;HPM_P2
2021/09/28 00:02:07;;;;;;;9.20;7.97;;;;;;;13.87;100.00;98451.97;4971266;28;20232;-70
2021/09/28 00:04:35;;;;;;;8.73;7.93;;;;;;;13.84;100.00;98457.66;4974823;28;20233;-70
2021/09/28 00:07:15;;;;;;;8.50;7.80;;;;;;;13.72;100.00;98468.69;4942885;28;20233;-72
2021/09/28 00:09:43;;;;;;;8.17;7.40;;;;;;;13.68;100.00;98464.72;4972857;28;20206;-70
2021/09/28 00:12:12;;;;;;;8.77;7.57;;;;;;;13.66;100.00;98464.06;4976076;28;20238;-71
2021/09/28 00:14:40;;;;;;;8.47;7.57;;;;;;;13.55;100.00;98454.63;4961363;28;20210;-70
2021/09/28 00:17:08;;;;;;;8.93;8.13;;;;;;;13.49;100.00;98460.63;4980490;28;20208;-71
2021/09/28 00:19:36;;;;;;;8.70;7.90;;;;;;;13.44;100.00;98458.47;4965364;28;20215;-71
2021/09/28 00:22:05;;;;;;;8.73;8.00;;;;;;;13.40;100.00;98462.44;4978117;28;20221;-71
2021/09/28 00:24:34;;;;;;;8.47;7.67;;;;;;;13.36;100.00;98458.47;4934747;28;20248;-70
2021/09/28 00:27:03;;;;;;;8.50;7.60;;;;;;;13.25;100.00;98470.28;4970294;28;20206;-71
2021/09/28 00:29:31;;;;;;;8.17;7.37;;;;;;;13.22;100.00;98464.47;4974676;28;20221;-70
2021/09/28 00:31:59;;;;;;;8.93;8.23;;;;;;;13.21;100.00;98465.47;4963660;28;21215;-71
2021/09/28 00:34:27;;;;;;;8.33;7.47;;;;;;;13.16;100.00;98460.69;4972681;28;20324;-70
2021/09/28 00:36:55;;;;;;;8.57;7.60;;;;;;;13.13;100.00;98466.34;4968112;28;20443;-71
2021/09/28 00:39:23;;;;;;;8.63;7.93;;;;;;;13.10;100.00;98466.69;4945611;28;20224;-71
2021/09/28 00:41:52;;;;;;;8.73;7.93;;;;;;;13.05;100.00;98466.31;4973291;28;20784;-71
2021/09/28 00:44:30;;;;;;;9.50;8.43;;;;;;;13.10;100.00;98466.69;4941015;28;20217;-71
2021/09/28 00:46:58;;;;;;;8.60;7.80;;;;;;;13.15;100.00;98477.66;4963977;28;20197;-73
2021/09/28 00:49:26;;;;;;;8.33;7.53;;;;;;;13.18;100.00;98475.47;4971100;28;20265;-71
2021/09/28 00:51:54;;;;;;;8.10;7.40;;;;;;;13.23;100.00;98471.47;4966231;28;20225;-70
2021/09/28 00:54:22;;;;;;;7.80;7.20;;;;;;;13.10;100.00;98472.81;4973021;28;20234;-70
2021/09/28 00:56:52;;;;;;;8.33;7.63;;;;;;;13.01;100.00;98471.16;4970425;28;20206;-70
2021/09/28 00:59:20;;;;;;;9.23;7.33;;;;;;;12.93;100.00;98474.66;4941659;28;20221;-71
2021/09/28 01:01:49;;;;;;;8.20;7.40;;;;;;;12.91;100.00;98468.69;4970407;28;20331;-70
2021/09/28 01:04:17;;;;;;;7.97;7.27;;;;;;;12.84;100.00;98467.69;4973827;28;20622;-70
2021/09/28 01:06:46;;;;;;;8.40;7.70;;;;;;;12.83;100.00;98466.84;4958277;28;20279;-73
2021/09/28 01:09:14;;;;;;;8.20;7.50;;;;;;;12.82;100.00;98470.50;4966521;28;20577;-71
2021/09/28 01:11:42;;;;;;;7.93;7.30;;;;;;;12.78;100.00;98460.38;4968125;28;20598;-70
2021/09/28 01:14:11;;;;;;;8.03;7.43;;;;;;;12.74;100.00;98466.03;4957952;28;20238;-71
2021/09/28 01:16:39;;;;;;;8.27;7.60;;;;;;;12.70;100.00;98461.22;4939065;28;20813;-70
2021/09/28 01:19:07;;;;;;;8.43;7.73;;;;;;;12.69;100.00;98462.19;4968265;28;20748;-71
2021/09/28 01:21:38;;;;;;;8.47;7.60;;;;;;;12.64;100.00;98468.00;4976792;28;20233;-70
2021/09/28 01:24:06;;;;;;;9.10;8.40;;;;;;;12.62;100.00;98464.69;4963951;28;20646;-71
2021/09/28 01:26:35;;;;;;;9.30;8.50;;;;;;;12.62;100.00;98464.69;4970533;28;20436;-71
2021/09/28 01:29:04;;;;;;;8.90;8.10;;;;;;;12.63;100.00;98465.53;4957889;28;20519;-71
2021/09/28 01:31:32;;;;;;;9.20;8.30;;;;;;;12.77;100.00;98490.63;4934439;28;20238;-71
2021/09/28 01:34:01;;;;;;;8.77;7.97;;;;;;;12.76;100.00;98492.44;4966040;28;20497;-72
2021/09/28 01:36:29;;;;;;;8.13;7.53;;;;;;;12.95;100.00;98504.59;4973399;28;20237;-70
2021/09/28 01:38:58;;;;;;;8.20;7.50;;;;;;;12.95;100.00;98504.59;4971073;28;20214;-70
2021/09/28 01:41:26;;;;;;;7.67;6.97;;;;;;;12.96;100.00;98495.59;4973880;28;20824;-71
2021/09/28 01:44:08;;;;;;;8.40;7.70;;;;;;;12.98;100.00;98506.91;4956410;28;20209;-70
2021/09/28 01:46:41;;;;;;;8.43;7.73;;;;;;;13.29;100.00;98502.75;4967265;28;20210;-71
2021/09/28 01:49:10;;;;;;;9.10;8.37;;;;;;;13.38;100.00;98503.53;4948515;28;20903;-71
2021/09/28 01:51:39;;;;;;;8.53;7.83;;;;;;;13.37;100.00;98507.19;4972957;28;20601;-70
2021/09/28 01:54:09;;;;;;;8.53;7.70;;;;;;;13.55;100.00;98509.69;4966848;28;20225;-71
2021/09/28 01:56:38;;;;;;;8.20;7.50;;;;;;;13.68;100.00;98509.16;4973683;28;20213;-70
2021/09/28 01:59:06;;;;;;;7.83;7.23;;;;;;;13.52;100.00;98504.69;4956390;28;20425;-72
2021/09/28 02:01:35;;;;;;;7.77;7.17;;;;;;;13.46;100.00;98507.06;4970528;28;20857;-71
2021/09/28 02:04:03;;;;;;;7.63;7.03;;;;;;;13.54;100.00;98514.19;4938487;28;20308;-69
2021/09/28 02:06:35;;;;;;;8.60;7.23;;;;;;;13.59;100.00;98521.66;4967152;28;20225;-71
2021/09/28 02:09:05;;;;;;;8.40;7.70;;;;;;;13.57;100.00;98534.31;4968492;28;20209;-70
2021/09/28 02:11:35;;;;;;;8.20;7.50;;;;;;;13.80;100.00;98534.41;4969754;28;20288;-71
2021/09/28 02:14:04;;;;;;;7.67;6.87;;;;;;;13.88;100.00;98534.41;4958694;28;20350;-70
2021/09/28 02:16:32;;;;;;;8.27;7.57;;;;;;;13.93;100.00;98536.53;4969946;28;20235;-71
2021/09/28 02:19:00;;;;;;;8.00;6.70;;;;;;;14.14;100.00;98541.28;4928122;28;20214;-71
2021/09/28 02:21:28;;;;;;;7.50;6.80;;;;;;;14.29;100.00;98543.22;4967312;28;20675;-69
2021/09/28 02:23:56;;;;;;;7.23;6.63;;;;;;;14.32;100.00;98549.03;4967544;28;20217;-70
2021/09/28 02:26:24;;;;;;;6.67;6.07;;;;;;;14.36;100.00;98552.19;4971129;28;20762;-71
2021/09/28 02:28:53;;;;;;;5.60;5.10;;;;;;;14.40;100.00;98548.16;4958406;28;20213;-70
2021/09/28 02:31:21;;;;;;;4.27;3.97;;;;;;;14.46;100.00;98557.31;4970655;28;20216;-69
2021/09/28 02:33:49;;;;;;;3.90;3.60;;;;;;;14.44;100.00;98560.13;4947051;28;20299;-69
2021/09/28 02:36:17;;;;;;;3.87;3.57;;;;;;;14.42;100.00;98553.31;4965570;28;20218;-70
2021/09/28 02:38:45;;;;;;;3.20;3.00;;;;;;;14.39;100.00;98557.16;4963783;28;20710;-69
2021/09/28 02:41:13;;;;;;;2.90;2.70;;;;;;;14.24;100.00;98553.59;4971163;28;20911;-70
2021/09/28 02:43:41;;;;;;;2.40;2.30;;;;;;;14.28;100.00;98558.38;4957657;28;20217;-71
2021/09/28 02:46:10;;;;;;;2.73;2.50;;;;;;;14.22;100.00;98566.25;4970401;28;20205;-71
2021/09/28 02:48:38;;;;;;;1.83;1.80;;;;;;;14.13;100.00;98571.59;4969360;28;20639;-69
2021/09/28 02:51:06;;;;;;;1.60;1.60;;;;;;;14.11;100.00;98570.94;4962676;28;20206;-71
2021/09/28 02:53:34;;;;;;;1.67;1.67;;;;;;;14.07;100.00;98571.47;4939216;28;21055;-70
2021/09/28 02:56:02;;;;;;;1.50;1.50;;;;;;;14.01;100.00;98579.13;4964946;28;20214;-69
2021/09/28 02:58:30;;;;;;;1.50;1.50;;;;;;;13.96;100.00;98580.66;4967388;28;20213;-70
2021/09/28 03:00:58;;;;;;;2.67;1.30;;;;;;;14.05;100.00;98587.63;4960060;28;20400;-69
2021/09/28 03:03:28;;;;;;;1.47;1.47;;;;;;;14.00;100.00;98590.78;4967966;28;20845;-69
2021/09/28 03:05:56;;;;;;;1.50;1.50;;;;;;;13.98;100.00;98591.97;4965531;28;20206;-69
2021/09/28 03:08:24;;;;;;;1.00;1.00;;;;;;;13.88;100.00;98592.16;4930012;28;20759;-69
2021/09/28 03:10:52;;;;;;;1.17;1.17;;;;;;;13.59;100.00;98582.91;4968917;28;20210;-71
2021/09/28 03:13:20;;;;;;;1.10;1.10;;;;;;;13.49;100.00;98579.59;4969693;28;20745;-71
2021/09/28 03:15:48;;;;;;;1.93;1.17;;;;;;;13.52;100.00;98571.28;4968740;28;20234;-70
2021/09/28 03:18:15;;;;;;;1.20;1.10;;;;;;;13.46;100.00;98578.13;4965865;28;20486;-70
2021/09/28 03:20:45;;;;;;;1.10;1.10;;;;;;;13.36;100.00;98583.56;4968168;28;20202;-69
2021/09/28 03:23:13;;;;;;;2.87;1.10;;;;;;;13.37;100.00;98579.91;4924169;28;20240;-70
2021/09/28 03:25:41;;;;;;;3.70;1.20;;;;;;;13.34;100.00;98585.56;4960996;28;20217;-70
2021/09/28 03:28:09;;;;;;;1.00;1.00;;;;;;;13.27;100.00;98588.06;4963385;28;20614;-70
2021/09/28 03:30:37;;;;;;;1.10;1.10;;;;;;;13.33;100.00;98591.91;4970944;28;20198;-71
2021/09/28 03:33:06;;;;;;;2.40;1.07;;;;;;;13.36;100.00;98602.22;4971253;28;20221;-69
2021/09/28 03:35:34;;;;;;;1.10;1.10;;;;;;;13.35;100.00;98613.00;4961208;28;20233;-69
2021/09/28 03:38:03;;;;;;;1.03;1.00;;;;;;;13.30;100.00;98616.19;4965593;28;20233;-69
2021/09/28 03:40:31;;;;;;;1.27;1.10;;;;;;;13.29;100.00;98620.66;4928562;28;20838;-70
2021/09/28 03:42:59;;;;;;;1.20;1.20;;;;;;;13.25;100.00;98626.47;4967375;28;20230;-69
2021/09/28 03:45:27;;;;;;;1.10;1.00;;;;;;;13.19;100.00;98635.97;4962625;28;20564;-70
2021/09/28 03:47:55;;;;;;;0.87;0.87;;;;;;;13.05;100.00;98631.28;4970437;28;20405;-70
2021/09/28 03:50:24;;;;;;;0.90;0.90;;;;;;;13.06;100.00;98643.59;4968150;28;20210;-71
2021/09/28 03:52:52;;;;;;;1.40;1.40;;;;;;;13.05;100.00;98648.09;4968293;28;20229;-70
2021/09/28 03:55:21;;;;;;;1.40;1.30;;;;;;;13.20;100.00;98645.63;4924131;28;21100;-70
2021/09/28 03:57:50;;;;;;;1.63;1.47;;;;;;;13.11;100.00;98644.78;4953658;28;20443;-70
2021/09/28 04:00:19;;;;;;;1.50;1.40;;;;;;;13.06;100.00;98651.56;4970461;28;20297;-70
2021/09/28 04:02:47;;;;;;;1.60;1.17;;;;;;;13.02;100.00;98651.09;4969401;28;20237;-69
2021/09/28 04:05:16;;;;;;;5.77;1.97;;;;;;;12.96;100.00;98647.25;4952956;28;20217;-70
2021/09/28 04:07:44;;;;;;;1.30;1.20;;;;;;;13.01;100.00;98644.91;4963168;28;20248;-69
2021/09/28 04:10:13;;;;;;;2.30;1.70;;;;;;;12.99;100.00;98648.75;4958700;28;20240;-71
2021/09/28 04:12:42;;;;;;;1.53;1.47;;;;;;;12.92;100.00;98645.91;4928345;28;20256;-69
2021/09/28 04:15:10;;;;;;;3.43;1.53;;;;;;;12.89;100.00;98646.22;4969398;28;20222;-68
2021/09/28 04:17:38;;;;;;;1.60;1.50;;;;;;;12.88;100.00;98636.59;4961731;28;20809;-67
2021/09/28 04:20:07;;;;;;;1.93;1.40;;;;;;;12.68;100.00;98644.03;4962253;28;20407;-67
2021/09/28 04:22:35;;;;;;;1.00;1.00;;;;;;;12.77;100.00;98642.22;4967317;28;20792;-67
2021/09/28 04:25:05;;;;;;;1.40;1.40;;;;;;;12.57;100.00;98647.78;4946937;28;21149;-68
2021/09/28 04:27:33;;;;;;;1.70;1.60;;;;;;;12.58;100.00;98641.50;4944424;28;20229;-66
2021/09/28 04:30:04;;;;;;;1.67;1.57;;;;;;;12.61;100.00;98643.00;4961028;28;20426;-67
2021/09/28 04:32:32;;;;;;;1.93;1.50;;;;;;;12.43;100.00;98651.91;4972750;28;20241;-67
2021/09/28 04:34:59;;;;;;;1.00;1.00;;;;;;;12.39;100.00;98659.38;4965996;28;20364;-69
2021/09/28 04:37:27;;;;;;;1.53;1.43;;;;;;;12.41;100.00;98657.38;4968581;28;20424;-68
2021/09/28 04:39:55;;;;;;;1.80;1.67;;;;;;;12.42;100.00;98666.19;4972512;28;20343;-69
2021/09/28 04:42:23;;;;;;;2.10;1.97;;;;;;;12.53;100.00;98665.91;4930703;28;20708;-67
2021/09/28 04:44:51;;;;;;;2.27;2.07;;;;;;;12.44;100.00;98665.03;4948943;28;20213;-67
2021/09/28 04:47:20;;;;;;;2.27;2.07;;;;;;;12.29;100.00;98669.28;4961521;28;20205;-67
2021/09/28 04:49:48;;;;;;;2.23;2.03;;;;;;;12.33;100.00;98675.97;4971723;28;20555;-67
2021/09/28 04:52:17;;;;;;;2.27;2.07;;;;;;;12.32;100.00;98682.25;4965720;28;20276;-67
2021/09/28 04:54:45;;;;;;;3.10;2.50;;;;;;;12.50;100.00;98674.22;4957743;28;20202;-68
2021/09/28 04:57:13;;;;;;;2.33;2.23;;;;;;;12.37;100.00;98681.78;4939964;28;20214;-66
2021/09/28 04:59:42;;;;;;;2.63;2.53;;;;;;;12.24;100.00;98683.06;4921041;28;20303;-67
2021/09/28 05:02:14;;;;;;;3.00;2.80;;;;;;;12.37;100.00;98692.41;4960321;28;20237;-68
2021/09/28 05:04:44;;;;;;;3.53;3.13;;;;;;;12.40;100.00;98684.13;4959183;28;20369;-68
2021/09/28 05:07:12;;;;;;;3.27;3.07;;;;;;;12.26;100.00;98693.50;4956144;28;20218;-68
2021/09/28 05:09:40;;;;;;;2.97;2.83;;;;;;;12.19;100.00;98693.31;4961501;28;20209;-68
2021/09/28 05:12:09;;;;;;;4.57;3.07;;;;;;;11.97;100.00;98684.03;4966429;28;20241;-69
2021/09/28 05:14:37;;;;;;;3.60;3.40;;;;;;;11.94;100.00;98687.81;4967868;28;20571;-67
2021/09/28 05:17:05;;;;;;;4.10;3.73;;;;;;;11.85;100.00;98686.91;4938043;28;20230;-67
2021/09/28 05:19:33;;;;;;;4.40;3.90;;;;;;;11.94;100.00;98693.13;4968280;28;20203;-67
2021/09/28 05:22:02;;;;;;;2.63;2.47;;;;;;;11.92;100.00;98696.91;4962743;28;20245;-67
2021/09/28 05:24:31;;;;;;;4.30;4.10;;;;;;;11.96;100.00;98706.25;4964405;28;20221;-67
2021/09/28 05:26:59;;;;;;;3.47;3.20;;;;;;;11.97;100.00;98698.13;4957628;28;20280;-68
2021/09/28 05:29:26;;;;;;;7.00;3.87;;;;;;;12.02;100.00;98695.84;4966063;28;20373;-67
2021/09/28 05:31:54;;;;;;;4.90;4.50;;;;;;;11.98;100.00;98704.28;4939179;28;20250;-67
2021/09/28 05:34:26;;;;;;;4.10;3.50;;;;;;;12.08;100.00;98707.69;4955013;28;20740;-66
2021/09/28 05:36:55;;;;;;;4.50;3.80;;;;;;;11.91;100.00;98701.41;4962637;28;20835;-68
2021/09/28 05:39:24;;;;;;;5.17;4.77;;;;;;;11.97;100.00;98702.63;4956873;28;20206;-69
2021/09/28 05:41:52;;;;;;;4.37;4.00;;;;;;;12.06;100.00;98709.69;4959337;28;20252;-72
2021/09/28 05:44:20;;;;;;;4.47;4.17;;;;;;;11.97;100.00;98713.25;4970347;28;20210;-77
2021/09/28 05:46:48;;;;;;;4.13;3.73;;;;;;;11.89;100.00;98711.34;4940015;28;20213;-76
2021/09/28 05:49:16;;;;;;;5.30;4.77;;;;;;;11.93;100.00;98714.50;4960832;28;20490;-77
2021/09/28 05:51:51;;;;;;;4.70;4.13;;;;;;;11.99;100.00;98714.72;4967664;28;20598;-75
2021/09/28 05:54:19;;;;;;;6.07;4.33;;;;;;;12.11;100.00;98723.31;4955875;28;20625;-74
2021/09/28 05:56:50;;;;;;;5.23;4.73;;;;;;;12.16;100.00;98726.34;4949993;28;20976;-73
2021/09/28 05:59:19;;;;;;;4.73;4.37;;;;;;;12.11;100.00;98722.47;4964650;28;20225;-75
2021/09/28 06:01:48;;;;;;;5.37;4.87;;;;;;;12.11;100.00;98730.44;4941215;28;20240;-75
2021/09/28 06:04:17;;;;;;;5.97;5.47;;;;;;;12.12;100.00;98727.66;4965903;28;20670;-73
2021/09/28 06:06:45;;;;;;;5.17;4.70;;;;;;;12.15;100.00;98724.66;4972041;28;20208;-75
2021/09/28 06:09:13;;;;;;;5.07;4.53;;;;;;;12.27;100.00;98722.59;4962756;28;20304;-75
2021/09/28 06:11:43;;;;;;;5.83;5.23;;;;;;;12.19;100.00;98729.66;4957477;28;20233;-76
2021/09/28 06:14:12;;;;;;;6.80;5.03;;;;;;;12.29;100.00;98730.38;4962991;28;20417;-76
2021/09/28 06:16:40;;;;;;;5.60;5.17;;;;;;;12.27;100.00;98735.03;4971671;28;20535;-77
2021/09/28 06:19:08;;;;;;;5.40;4.90;;;;;;;12.30;100.00;98732.91;4940280;28;20459;-75
2021/09/28 06:21:36;;;;;;;6.13;5.63;;;;;;;12.54;100.00;98733.19;4968936;28;20654;-77
2021/09/28 06:24:04;;;;;;;6.23;5.77;;;;;;;12.59;100.00;98739.72;4965542;28;20210;-75
2021/09/28 06:26:32;;;;;;;6.07;5.57;;;;;;;12.54;100.00;98738.50;4960502;28;20912;-76
2021/09/28 06:29:00;;;;;;;6.30;5.60;;;;;;;12.52;100.00;98737.84;4956293;28;20206;-77
2021/09/28 06:31:30;;;;;;;6.10;5.50;;;;;;;12.59;100.00;98741.53;4971571;28;20206;-75
2021/09/28 06:33:58;;;;;;;8.03;6.50;;;;;;;12.51;100.00;98738.84;4933708;28;20228;-77
2021/09/28 06:36:26;;;;;;;7.63;5.93;;;;;;;12.64;100.00;98741.06;4961386;28;20237;-80
2021/09/28 06:38:54;;;;;;;7.27;5.50;;;;;;;12.66;100.00;98739.06;4968226;28;20773;-75
2021/09/28 06:41:26;;;;;;;6.23;5.73;;;;;;;12.68;100.00;98735.25;4945186;28;20218;-76
2021/09/28 06:43:54;;;;;;;6.30;5.70;;;;;;;12.72;100.00;98736.63;4957946;28;20209;-77
2021/09/28 06:46:23;;;;;;;6.10;5.60;;;;;;;12.81;100.00;98737.47;4967025;28;20404;-78
2021/09/28 06:48:53;;;;;;;6.27;5.77;;;;;;;12.84;100.00;98739.81;4937323;28;20210;-77
2021/09/28 06:51:21;;;;;;;7.80;6.43;;;;;;;12.92;100.00;98747.00;4962002;28;20210;-77
2021/09/28 06:53:49;;;;;;;6.57;6.07;;;;;;;12.82;100.00;98751.63;4967533;28;20669;-76
2021/09/28 06:56:18;;;;;;;7.33;5.80;;;;;;;12.87;100.00;98752.78;4954350;28;20241;-76
2021/09/28 06:58:46;;;;;;;7.43;6.70;;;;;;;12.84;100.00;98760.25;4969147;28;20589;-76
2021/09/28 07:01:14;;;;;;;7.03;6.33;;;;;;;12.80;100.00;98754.41;4961339;28;20224;-77
2021/09/28 07:03:42;;;;;;;6.87;6.23;;;;;;;12.74;100.00;98755.91;4970310;28;20212;-76
2021/09/28 07:06:12;;;;;;;7.83;5.90;;;;;;;12.66;100.00;98757.69;4934521;28;20217;-74
2021/09/28 07:08:40;;;;;;;6.30;5.70;;;;;;;12.53;100.00;98763.44;4926952;28;21274;-76
2021/09/28 07:11:08;;;;;;;6.90;6.30;;;;;;;12.66;100.00;98757.69;4972835;28;20709;-76
2021/09/28 07:13:36;;;;;;;7.50;6.70;;;;;;;12.69;100.00;98760.88;4962680;28;20234;-78
2021/09/28 07:16:05;;;;;;;7.40;6.77;;;;;;;12.76;100.00;98766.38;4971028;28;20216;-78
2021/09/28 07:18:33;;;;;;;7.37;6.67;;;;;;;12.84;100.00;98768.25;4960196;28;20210;-71
2021/09/28 07:21:01;;;;;;;7.20;6.50;;;;;;;12.74;100.00;98771.03;4965340;28;20419;-71
2021/09/28 07:23:31;;;;;;;6.60;6.10;;;;;;;12.70;100.00;98762.53;4937287;28;20237;-72
2021/09/28 07:25:59;;;;;;;7.80;6.00;;;;;;;12.57;100.00;98776.25;4967873;28;20402;-73
2021/09/28 07:28:27;;;;;;;7.70;7.00;;;;;;;12.49;100.00;98764.75;4968547;28;20627;-71
2021/09/28 07:30:55;;;;;;;6.87;6.17;;;;;;;12.48;100.00;98776.38;4961678;28;20555;-73
2021/09/28 07:33:23;;;;;;;6.53;6.03;;;;;;;12.51;100.00;98774.25;4972757;28;20745;-75
2021/09/28 07:35:51;;;;;;;8.13;7.30;;;;;;;12.57;100.00;98780.72;4956415;28;20201;-73
2021/09/28 07:38:20;;;;;;;7.93;5.80;;;;;;;12.54;100.00;98773.94;4939252;28;20229;-73
2021/09/28 07:40:50;;;;;;;5.73;5.33;;;;;;;12.57;100.00;98770.94;4964989;28;21278;-73
2021/09/28 07:43:19;;;;;;;8.90;7.30;;;;;;;12.64;100.00;98778.28;4971837;28;20222;-73
2021/09/28 07:45:47;;;;;;;7.33;6.73;;;;;;;12.73;100.00;98767.53;4964589;28;20213;-73
2021/09/28 07:48:15;;;;;;;7.37;6.77;;;;;;;12.62;100.00;98770.44;4971528;28;20209;-73
2021/09/28 07:50:43;;;;;;;6.83;6.07;;;;;;;12.67;100.00;98776.13;4951189;28;20244;-71
2021/09/28 07:53:11;;;;;;;6.83;6.10;;;;;;;12.91;100.00;98777.25;4973326;28;20230;-72
2021/09/28 07:55:39;;;;;;;6.57;5.97;;;;;;;12.82;100.00;98775.56;4925490;28;20225;-70
2021/09/28 07:58:08;;;;;;;7.47;6.70;;;;;;;12.90;100.00;98780.09;4969423;28;20901;-72
2021/09/28 08:00:39;;;;;;;9.10;6.27;;;;;;;13.00;100.00;98783.44;4971357;28;20205;-71
2021/09/28 08:03:08;;;;;;;6.37;5.83;;;;;;;13.18;100.00;98783.34;4971288;28;20329;-72
2021/09/28 08:05:36;;;;;;;6.07;5.57;;;;;;;13.05;100.00;98777.63;4961567;28;20244;-72
2021/09/28 08:08:05;;;;;;;6.13;5.53;;;;;;;13.18;100.00;98783.34;4968655;28;20209;-72
2021/09/28 08:10:33;;;;;;;5.73;5.17;;;;;;;13.17;100.00;98784.34;4935618;28;20213;-72
2021/09/28 08:13:04;;;;;;;5.33;4.93;;;;;;;13.53;100.00;98769.97;4950866;28;20842;-75
2021/09/28 08:15:35;;;;;;;6.43;5.83;;;;;;;13.54;100.00;98783.13;4971438;28;20626;-74
2021/09/28 08:18:04;;;;;;;5.90;5.43;;;;;;;13.68;100.00;98775.50;4959499;28;20609;-73
2021/09/28 08:20:32;;;;;;;8.17;6.10;;;;;;;13.71;100.00;98777.81;4970225;28;20749;-74
2021/09/28 08:23:00;;;;;;;6.00;5.60;;;;;;;13.79;100.00;98777.00;4963265;28;20229;-73
2021/09/28 08:25:47;;;;;;;5.77;5.03;;;;;;;14.11;100.00;98770.00;4934668;28;20220;-70
2021/09/28 08:31:03;;;;;;;5.70;5.20;;;;;;;14.38;100.00;98779.47;4974913;28;20882;-72
2021/09/28 08:33:36;;;;;;;5.67;5.00;;;;;;;14.39;100.00;98770.47;4949213;28;20236;-74
2021/09/28 08:36:06;;;;;;;4.73;4.30;;;;;;;14.30;100.00;98768.81;4978435;28;20208;-75
2021/09/28 08:38:34;;;;;;;9.00;6.47;;;;;;;14.43;100.00;98770.97;4962876;28;20436;-74
2021/09/28 08:41:03;;;;;;;5.20;4.53;;;;;;;14.70;100.00;98769.75;4975638;28;20228;-73
2021/09/28 08:43:31;;;;;;;4.90;4.57;;;;;;;14.64;100.00;98770.41;4927514;28;20241;-72
2021/09/28 08:45:59;;;;;;;4.43;4.13;;;;;;;14.67;100.00;98766.56;4976639;28;20937;-74
2021/09/28 08:48:28;;;;;;;6.93;6.33;;;;;;;14.53;100.00;98768.09;4951652;28;20208;-71
2021/09/28 08:50:56;;;;;;;4.97;4.67;;;;;;;14.80;100.00;98771.41;4968096;28;20210;-74
2021/09/28 08:53:24;;;;;;;7.20;6.60;;;;;;;14.78;100.00;98762.72;4964171;28;20256;-71
2021/09/28 08:55:52;;;;;;;4.37;3.93;;;;;;;14.71;100.00;98773.25;4973338;28;20205;-72
2021/09/28 08:58:22;;;;;;;4.40;4.03;;;;;;;14.66;100.00;98770.22;4935020;28;20242;-72
2021/09/28 09:00:53;;;;;;;4.83;4.43;;;;;;;14.82;100.00;98767.56;4972953;28;20209;-73
2021/09/28 09:03:29;;;;;;;3.63;3.43;;;;;;;15.03;100.00;98774.97;4973000;28;20267;-71
2021/09/28 09:06:00;;;;;;;4.57;3.40;;;;;;;15.27;100.00;98762.50;4957011;28;20209;-74
2021/09/28 09:08:29;;;;;;;4.57;4.17;;;;;;;15.26;100.00;98763.50;4958344;28;20217;-72
2021/09/28 09:11:02;;;;;;;4.27;3.87;;;;;;;15.25;100.00;98761.03;4972940;28;20225;-73
2021/09/28 09:13:35;;;;;;;3.60;3.30;;;;;;;15.10;100.00;98759.06;4966103;28;20229;-72
2021/09/28 09:16:04;;;;;;;3.77;3.57;;;;;;;15.25;100.00;98755.69;4931694;28;20401;-73
2021/09/28 09:18:35;;;;;;;3.63;3.33;;;;;;;15.34;100.00;98750.13;4971206;28;20271;-72
2021/09/28 09:21:04;;;;;;;3.40;3.10;;;;;;;15.37;100.00;98756.13;4953068;28;20305;-74
2021/09/28 09:23:36;;;;;;;3.27;2.93;;;;;;;15.27;100.00;98754.47;4969765;28;20313;-71
2021/09/28 09:26:08;;;;;;;3.03;2.83;;;;;;;15.02;100.00;98753.78;4968630;28;20767;-73
2021/09/28 09:28:37;;;;;;;3.00;2.80;;;;;;;14.51;100.00;98754.09;4962728;28;20209;-72
2021/09/28 09:31:14;;;;;;;3.80;3.60;;;;;;;14.42;100.00;98754.13;4946026;28;20901;-72
2021/09/28 09:33:45;;;;;;;4.07;3.60;;;;;;;14.42;100.00;98748.78;4966898;28;20213;-70
2021/09/28 09:36:17;;;;;;;3.10;2.90;;;;;;;14.68;100.00;98754.88;4957171;28;21033;-70
2021/09/28 09:38:47;;;;;;;3.17;2.97;;;;;;;15.03;100.00;98750.09;4975921;28;20225;-69
2021/09/28 09:41:15;;;;;;;9.03;8.23;;;;;;;15.34;100.00;98749.28;4967491;28;20309;-72
2021/09/28 09:43:48;;;;;;;3.17;2.97;;;;;;;15.29;100.00;98749.81;4972684;28;20206;-74
2021/09/28 09:46:18;;;;;;;3.07;2.87;;;;;;;15.39;100.00;98754.09;4928688;28;20329;-73
2021/09/28 09:48:49;;;;;;;4.20;3.17;;;;;;;15.26;100.00;98757.34;4969831;28;20663;-73
2021/09/28 09:51:19;;;;;;;2.60;2.50;;;;;;;15.09;100.00;98743.25;4960377;28;20434;-73
2021/09/28 09:53:54;;;;;;;3.33;2.50;;;;;;;15.16;100.00;98750.41;4974415;28;20206;-71
2021/09/28 09:56:23;;;;;;;2.37;2.27;;;;;;;15.48;100.00;98747.69;4967989;28;20534;-73
2021/09/28 09:58:51;;;;;;;3.27;3.07;;;;;;;15.35;100.00;98745.59;4973430;28;20241;-73
2021/09/28 10:01:20;;;;;;;3.47;3.03;;;;;;;15.21;100.00;98752.53;4933712;28;20416;-73
2021/09/28 10:03:49;;;;;;;3.40;3.10;;;;;;;15.03;100.00;98750.97;4971842;28;20229;-76
2021/09/28 10:06:17;;;;;;;4.13;3.77;;;;;;;15.06;100.00;98749.75;4967599;28;20208;-73
2021/09/28 10:08:47;;;;;;;3.30;3.00;;;;;;;15.15;100.00;98753.22;4962874;28;20219;-72
2021/09/28 10:11:15;;;;;;;3.17;2.90;;;;;;;14.87;100.00;98749.19;4965401;28;20763;-73
2021/09/28 10:13:52;;;;;;;3.83;3.50;;;;;;;14.96;100.00;98739.28;4963749;28;20209;-72
2021/09/28 10:16:32;;;;;;;3.77;3.57;;;;;;;15.10;100.00;98742.25;4935152;28;20327;-72
2021/09/28 10:19:02;;;;;;;3.57;2.70;;;;;;;15.52;100.00;98734.81;4967536;28;20233;-70
2021/09/28 10:21:42;;;;;;;2.67;2.47;;;;;;;15.76;100.00;98728.47;4968345;28;20233;-69
2021/09/28 10:24:29;;;;;;;2.40;2.23;;;;;;;15.99;100.00;98732.97;4957121;28;20448;-70
2021/09/28 10:27:29;;;;;;;2.17;2.00;;;;;;;16.37;100.00;98730.25;4967069;28;20212;-70
2021/09/28 10:30:09;;;;;;;2.43;2.23;;;;;;;16.73;100.00;98728.69;4933235;28;20284;-70
2021/09/28 10:32:49;;;;;;;2.53;2.20;;;;;;;16.76;100.00;98729.16;4964353;28;20587;-71
2021/09/28 10:35:18;;;;;;;2.17;2.07;;;;;;;16.51;100.00;98728.59;4963676;28;20399;-73
2021/09/28 10:37:56;;;;;;;1.90;1.90;;;;;;;16.27;100.00;98724.34;4973232;28;20297;-73
2021/09/28 10:40:46;;;;;;;1.93;1.70;;;;;;;16.33;100.00;98729.81;4959993;28;20475;-72
2021/09/28 10:43:29;;;;;;;2.40;2.30;;;;;;;16.18;100.00;98728.94;4965315;28;20291;-73
2021/09/28 10:46:00;;;;;;;3.23;2.40;;;;;;;16.08;100.00;98723.84;4953819;28;20209;-70
2021/09/28 10:48:35;;;;;;;2.73;2.50;;;;;;;16.09;100.00;98730.03;4950442;28;20356;-70
2021/09/28 10:51:11;;;;;;;2.67;2.57;;;;;;;16.17;100.00;98728.13;4966766;28;20201;-71
2021/09/28 10:53:41;;;;;;;2.63;2.43;;;;;;;16.38;100.00;98726.56;4974476;28;20205;-73
2021/09/28 10:56:11;;;;;;;2.27;2.17;;;;;;;16.09;100.00;98727.38;4961994;28;20218;-72
2021/09/28 10:59:06;;;;;;;2.80;2.70;;;;;;;16.27;100.00;98719.00;4968760;28;20229;-73
2021/09/28 11:01:34;;;;;;;3.13;3.03;;;;;;;16.13;100.00;98729.50;4938140;28;20245;-72
2021/09/28 11:04:21;;;;;;;3.03;2.50;;;;;;;15.97;100.00;98725.16;4933047;28;20593;-72
2021/09/28 11:07:02;;;;;;;3.47;3.10;;;;;;;15.88;100.00;98724.38;4968948;28;20197;-72
2021/09/28 11:09:48;;;;;;;4.33;2.80;;;;;;;15.93;100.00;98714.97;4968753;28;20202;-72
2021/09/28 11:12:17;;;;;;;3.00;2.90;;;;;;;16.06;100.00;98709.84;4959102;28;20236;-72
2021/09/28 11:14:46;;;;;;;2.80;2.60;;;;;;;16.25;100.00;98710.34;4970010;28;20216;-72
2021/09/28 11:17:16;;;;;;;3.60;3.30;;;;;;;16.36;100.00;98707.19;4972082;28;20215;-72
2021/09/28 11:19:46;;;;;;;3.40;2.63;;;;;;;16.61;100.00;98707.75;4935221;28;20226;-72
2021/09/28 11:22:23;;;;;;;2.40;2.30;;;;;;;16.65;100.00;98697.50;4934135;28;20229;-71
2021/09/28 11:24:52;;;;;;;2.90;2.80;;;;;;;16.97;100.00;98699.94;4966382;28;20197;-72
2021/09/28 11:27:20;;;;;;;3.00;2.20;;;;;;;17.09;100.00;98693.13;4969565;28;20213;-71
2021/09/28 11:29:54;;;;;;;2.37;2.27;;;;;;;17.35;100.00;98699.78;4970419;28;20297;-74
2021/09/28 11:32:22;;;;;;;3.43;2.30;;;;;;;17.70;90.09;98691.03;4970848;28;20229;-73
2021/09/28 11:34:50;;;;;;;2.40;2.20;;;;;;;18.35;84.51;98688.22;4958463;28;20477;-74
2021/09/28 11:37:22;;;;;;;3.73;2.30;;;;;;;18.09;77.06;98684.34;4960182;28;20193;-71
2021/09/28 11:39:51;;;;;;;3.17;2.30;;;;;;;18.44;72.85;98676.31;4953436;28;20275;-73